DAH030 LEBL-EDDM
Flight info
| Callsign | DAH030 |
|---|---|
| Flight time | N/A |
| Altitude | 38000 |
| Route | DALIN DCT PIVUS DCT DIBER DCT ADITA DCT MAXIR DCT LUSOL DCT BODRU DCT OKTET DCT IRMAR DCT KINES DCT VANAS DCT MOBLO DCT LAMUR DCT KORED DCT NUNRI T103 BETOS |
| Aircraft | A320/M-SDE3FGHIRWY/LB1 |
Departure
| Time | 2026-05-04 14:55 |
|---|---|
| Airport | Josep Tarradellas Barcelona-El Prat Airport (LEBL) |
Arrival
| Time | N/A |
|---|---|
| Airport | Munich Airport (EDDM) |
| Time | Latitude | Longitude | Altitude | Speed | Heading |
|---|---|---|---|---|---|
| 2026-05-04 14:37 | 41.28839 | 2.08106 | 17 ft | 0 kts | 66° |
| 2026-05-04 14:50 | 41.28841 | 2.08112 | 17 ft | 8 kts | 66° |
| 2026-05-04 14:51 | 41.28806 | 2.08196 | 18 ft | 14 kts | 145° |
| 2026-05-04 14:51 | 41.28714 | 2.08251 | 20 ft | 13 kts | 136° |
| 2026-05-04 14:51 | 41.28713 | 2.08290 | 21 ft | 6 kts | 75° |
| 2026-05-04 14:51 | 41.28745 | 2.08386 | 22 ft | 3 kts | 64° |
| 2026-05-04 14:52 | 41.28764 | 2.08439 | 22 ft | 11 kts | 64° |
| 2026-05-04 14:52 | 41.28812 | 2.08572 | 19 ft | 21 kts | 68° |
| 2026-05-04 14:52 | 41.28885 | 2.08789 | 17 ft | 30 kts | 65° |
| 2026-05-04 14:52 | 41.28972 | 2.09055 | 17 ft | 32 kts | 66° |
| 2026-05-04 14:53 | 41.29069 | 2.09336 | 19 ft | 34 kts | 65° |
| 2026-05-04 14:53 | 41.29178 | 2.09627 | 17 ft | 37 kts | 64° |
| 2026-05-04 14:53 | 41.29265 | 2.09880 | 15 ft | 24 kts | 64° |
| 2026-05-04 14:53 | 41.29268 | 2.10043 | 14 ft | 16 kts | 101° |
| 2026-05-04 14:54 | 41.29257 | 2.10099 | 16 ft | 0 kts | 112° |
| 2026-05-04 14:54 | 41.29245 | 2.10151 | 16 ft | 19 kts | 104° |
| 2026-05-04 14:54 | 41.29179 | 2.10219 | 14 ft | 15 kts | 238° |
| 2026-05-04 14:54 | 41.29136 | 2.10081 | 14 ft | 18 kts | 249° |
| 2026-05-04 14:55 | 41.29034 | 2.09775 | 17 ft | 68 kts | 245° |
| 2026-05-04 14:55 | 41.28731 | 2.08921 | 18 ft | 132 kts | 246° |
| 2026-05-04 14:55 | 41.28326 | 2.07640 | 376 ft | 152 kts | 246° |
| 2026-05-04 14:55 | 41.27826 | 2.06355 | 1093 ft | 156 kts | 224° |
| 2026-05-04 14:56 | 41.26825 | 2.05802 | 1683 ft | 170 kts | 181° |
| 2026-05-04 14:56 | 41.25565 | 2.05858 | 2109 ft | 193 kts | 180° |
| 2026-05-04 14:56 | 41.24151 | 2.05865 | 2587 ft | 212 kts | 181° |
| 2026-05-04 14:56 | 41.22665 | 2.05836 | 3464 ft | 214 kts | 182° |
| 2026-05-04 14:57 | 41.21171 | 2.05795 | 4370 ft | 216 kts | 182° |
| 2026-05-04 14:57 | 41.19664 | 2.05747 | 5244 ft | 218 kts | 183° |
| 2026-05-04 14:57 | 41.18140 | 2.05694 | 6126 ft | 220 kts | 183° |
| 2026-05-04 14:57 | 41.16584 | 2.05635 | 6885 ft | 231 kts | 184° |
| 2026-05-04 14:58 | 41.14944 | 2.05563 | 7719 ft | 239 kts | 184° |
| 2026-05-04 14:58 | 41.13270 | 2.05487 | 8849 ft | 242 kts | 184° |
| 2026-05-04 14:58 | 41.11567 | 2.05408 | 10100 ft | 245 kts | 185° |
| 2026-05-04 14:58 | 41.09854 | 2.05327 | 11263 ft | 248 kts | 185° |
| 2026-05-04 14:59 | 41.08122 | 2.05246 | 12369 ft | 251 kts | 186° |
| 2026-05-04 14:59 | 41.06369 | 2.05162 | 13509 ft | 254 kts | 186° |
| 2026-05-04 14:59 | 41.02784 | 2.04995 | 15110 ft | 262 kts | 184° |
| 2026-05-04 15:00 | 41.00962 | 2.05472 | 15770 ft | 276 kts | 162° |
| 2026-05-04 15:00 | 40.99344 | 2.06960 | 16332 ft | 298 kts | 138° |
| 2026-05-04 15:00 | 40.98252 | 2.09466 | 16496 ft | 333 kts | 114° |
| 2026-05-04 15:01 | 40.96653 | 2.15676 | 16764 ft | 378 kts | 113° |
| 2026-05-04 15:01 | 40.95796 | 2.19027 | 17123 ft | 390 kts | 113° |
| 2026-05-04 15:01 | 40.95141 | 2.22552 | 17669 ft | 402 kts | 99° |
| 2026-05-04 15:01 | 40.95101 | 2.25089 | 18078 ft | 409 kts | 88° |
| 2026-05-04 15:02 | 40.95705 | 2.28797 | 18618 ft | 418 kts | 71° |
| 2026-05-04 15:02 | 40.97068 | 2.32211 | 18853 ft | 421 kts | 53° |
| 2026-05-04 15:02 | 40.99044 | 2.35060 | 18914 ft | 421 kts | 44° |
| 2026-05-04 15:02 | 41.01117 | 2.37794 | 18921 ft | 421 kts | 44° |
| 2026-05-04 15:03 | 41.03193 | 2.40533 | 18925 ft | 421 kts | 44° |
| 2026-05-04 15:03 | 41.05263 | 2.43275 | 18923 ft | 421 kts | 44° |
| 2026-05-04 15:03 | 41.07326 | 2.46019 | 18926 ft | 421 kts | 44° |
| 2026-05-04 15:03 | 41.09387 | 2.48778 | 18926 ft | 421 kts | 45° |
| 2026-05-04 15:04 | 41.11445 | 2.51543 | 18931 ft | 421 kts | 45° |
| 2026-05-04 15:04 | 41.13530 | 2.54340 | 18931 ft | 421 kts | 44° |
| 2026-05-04 15:04 | 41.15560 | 2.57063 | 18935 ft | 421 kts | 45° |
| 2026-05-04 15:04 | 41.17649 | 2.59868 | 18936 ft | 421 kts | 45° |
| 2026-05-04 15:05 | 41.19674 | 2.62592 | 18934 ft | 420 kts | 45° |
| 2026-05-04 15:05 | 41.21733 | 2.65367 | 18938 ft | 420 kts | 45° |
| 2026-05-04 15:05 | 41.23783 | 2.68133 | 18937 ft | 420 kts | 45° |
| 2026-05-04 15:05 | 41.25835 | 2.70907 | 18936 ft | 420 kts | 45° |
| 2026-05-04 15:06 | 41.27880 | 2.73671 | 18934 ft | 420 kts | 45° |
| 2026-05-04 15:06 | 41.29930 | 2.76443 | 18933 ft | 420 kts | 45° |
| 2026-05-04 15:06 | 41.32002 | 2.79246 | 18933 ft | 419 kts | 45° |
| 2026-05-04 15:07 | 41.36063 | 2.84748 | 18933 ft | 419 kts | 45° |
| 2026-05-04 15:07 | 41.38132 | 2.87549 | 18934 ft | 419 kts | 45° |
| 2026-05-04 15:07 | 41.40176 | 2.90317 | 18933 ft | 419 kts | 45° |
| 2026-05-04 15:07 | 41.42208 | 2.93081 | 18934 ft | 418 kts | 45° |
| 2026-05-04 15:08 | 41.44223 | 2.95822 | 18932 ft | 418 kts | 45° |
| 2026-05-04 15:08 | 41.46283 | 2.98624 | 18929 ft | 418 kts | 45° |
| 2026-05-04 15:08 | 41.48317 | 3.01393 | 18933 ft | 418 kts | 45° |
| 2026-05-04 15:08 | 41.50343 | 3.04152 | 18930 ft | 417 kts | 45° |
| 2026-05-04 15:09 | 41.52352 | 3.06895 | 18931 ft | 417 kts | 45° |
| 2026-05-04 15:09 | 41.54404 | 3.09706 | 18930 ft | 417 kts | 45° |
| 2026-05-04 15:09 | 41.56423 | 3.12474 | 18931 ft | 417 kts | 45° |
| 2026-05-04 15:10 | 41.60469 | 3.18021 | 18928 ft | 416 kts | 45° |
| 2026-05-04 15:10 | 41.62490 | 3.20790 | 18930 ft | 416 kts | 45° |
| 2026-05-04 15:10 | 41.66522 | 3.26325 | 18927 ft | 416 kts | 45° |
| 2026-05-04 15:11 | 41.68538 | 3.29104 | 18925 ft | 416 kts | 45° |
| 2026-05-04 15:11 | 41.70549 | 3.31878 | 18924 ft | 415 kts | 45° |
| 2026-05-04 15:11 | 41.72484 | 3.34746 | 18925 ft | 415 kts | 53° |
| 2026-05-04 15:11 | 41.74059 | 3.37982 | 18924 ft | 414 kts | 63° |
| 2026-05-04 15:12 | 41.75265 | 3.41465 | 18927 ft | 413 kts | 68° |
| 2026-05-04 15:12 | 41.76038 | 3.43808 | 18926 ft | 413 kts | 68° |
| 2026-05-04 15:12 | 41.77202 | 3.47314 | 18923 ft | 413 kts | 67° |
| 2026-05-04 15:12 | 41.78391 | 3.50875 | 18921 ft | 412 kts | 67° |
| 2026-05-04 15:13 | 41.79561 | 3.54378 | 18923 ft | 412 kts | 67° |
| 2026-05-04 15:13 | 41.80729 | 3.57889 | 18923 ft | 412 kts | 67° |
| 2026-05-04 15:13 | 41.81895 | 3.61405 | 18925 ft | 412 kts | 68° |
| 2026-05-04 15:13 | 41.83054 | 3.64911 | 18919 ft | 412 kts | 68° |
| 2026-05-04 15:14 | 41.84212 | 3.68415 | 18919 ft | 411 kts | 68° |
| 2026-05-04 15:14 | 41.85366 | 3.71922 | 18918 ft | 411 kts | 68° |
| 2026-05-04 15:14 | 41.86514 | 3.75423 | 18922 ft | 410 kts | 68° |
| 2026-05-04 15:14 | 41.87664 | 3.78937 | 18923 ft | 410 kts | 68° |
| 2026-05-04 15:15 | 41.88810 | 3.82433 | 18922 ft | 410 kts | 68° |
| 2026-05-04 15:15 | 41.89954 | 3.85923 | 18921 ft | 409 kts | 68° |
| 2026-05-04 15:15 | 41.91102 | 3.89429 | 18918 ft | 409 kts | 68° |
| 2026-05-04 15:16 | 41.93390 | 3.96415 | 18920 ft | 408 kts | 68° |
| 2026-05-04 15:16 | 41.94528 | 3.99898 | 18922 ft | 408 kts | 68° |
| 2026-05-04 15:16 | 41.96799 | 4.06870 | 18928 ft | 407 kts | 68° |
| 2026-05-04 15:17 | 41.97928 | 4.10361 | 18929 ft | 407 kts | 68° |
| 2026-05-04 15:17 | 42.00182 | 4.17326 | 18929 ft | 406 kts | 68° |
| 2026-05-04 15:17 | 42.01308 | 4.20801 | 18930 ft | 406 kts | 68° |
| 2026-05-04 15:18 | 42.02434 | 4.24287 | 18927 ft | 406 kts | 68° |
| 2026-05-04 15:18 | 42.03558 | 4.27766 | 18930 ft | 406 kts | 68° |
| 2026-05-04 15:18 | 42.04682 | 4.31251 | 18929 ft | 406 kts | 68° |
| 2026-05-04 15:19 | 42.06948 | 4.38195 | 18932 ft | 406 kts | 64° |
| 2026-05-04 15:19 | 42.08423 | 4.41429 | 18943 ft | 407 kts | 54° |
| 2026-05-04 15:19 | 42.12417 | 4.46835 | 18936 ft | 408 kts | 41° |
| 2026-05-04 15:20 | 42.14546 | 4.49374 | 18936 ft | 408 kts | 42° |
| 2026-05-04 15:20 | 42.16695 | 4.51952 | 18948 ft | 408 kts | 42° |
| 2026-05-04 15:20 | 42.18805 | 4.54496 | 18938 ft | 408 kts | 42° |
| 2026-05-04 15:20 | 42.20893 | 4.57018 | 18935 ft | 408 kts | 42° |
| 2026-05-04 15:21 | 42.23029 | 4.59600 | 18938 ft | 408 kts | 42° |
| 2026-05-04 15:21 | 42.25143 | 4.62157 | 18943 ft | 408 kts | 42° |
| 2026-05-04 15:21 | 42.29371 | 4.67272 | 18941 ft | 408 kts | 42° |
| 2026-05-04 15:22 | 42.31485 | 4.69833 | 18941 ft | 408 kts | 42° |
| 2026-05-04 15:22 | 42.33596 | 4.72392 | 18941 ft | 408 kts | 42° |
| 2026-05-04 15:22 | 42.37825 | 4.77520 | 18957 ft | 408 kts | 42° |
| 2026-05-04 15:23 | 42.39933 | 4.80081 | 18964 ft | 408 kts | 42° |
| 2026-05-04 15:23 | 42.42048 | 4.82652 | 18944 ft | 408 kts | 42° |
| 2026-05-04 15:23 | 42.44159 | 4.85221 | 18947 ft | 408 kts | 42° |
| 2026-05-04 15:23 | 42.46275 | 4.87803 | 18946 ft | 409 kts | 42° |
| 2026-05-04 15:24 | 42.50491 | 4.92959 | 18967 ft | 409 kts | 42° |
| 2026-05-04 15:24 | 42.54715 | 4.98136 | 18956 ft | 409 kts | 42° |
| 2026-05-04 15:25 | 42.56832 | 5.00731 | 18955 ft | 409 kts | 42° |
| 2026-05-04 15:25 | 42.58943 | 5.03322 | 18955 ft | 410 kts | 42° |
| 2026-05-04 15:25 | 42.61061 | 5.05918 | 18971 ft | 410 kts | 42° |
| 2026-05-04 15:26 | 42.65291 | 5.11109 | 18965 ft | 410 kts | 42° |
| 2026-05-04 15:26 | 42.67409 | 5.13708 | 18962 ft | 410 kts | 42° |
| 2026-05-04 15:26 | 42.71637 | 5.18915 | 18970 ft | 410 kts | 42° |
| 2026-05-04 15:27 | 42.73744 | 5.21519 | 18971 ft | 410 kts | 42° |
| 2026-05-04 15:27 | 42.77967 | 5.26758 | 18987 ft | 411 kts | 42° |
| 2026-05-04 15:28 | 42.82195 | 5.32000 | 18979 ft | 411 kts | 42° |
| 2026-05-04 15:28 | 42.84308 | 5.34619 | 18978 ft | 411 kts | 42° |
| 2026-05-04 15:28 | 42.88536 | 5.39864 | 18989 ft | 411 kts | 42° |
| 2026-05-04 15:29 | 42.90646 | 5.42483 | 18989 ft | 411 kts | 42° |
| 2026-05-04 15:30 | 42.99087 | 5.53012 | 18993 ft | 411 kts | 43° |
| 2026-05-04 15:30 | 43.05409 | 5.60927 | 19005 ft | 411 kts | 43° |
| 2026-05-04 15:31 | 43.09625 | 5.66207 | 18999 ft | 411 kts | 43° |
| 2026-05-04 15:31 | 43.11730 | 5.68851 | 19005 ft | 411 kts | 43° |
| 2026-05-04 15:32 | 43.18072 | 5.76837 | 19022 ft | 411 kts | 43° |
| 2026-05-04 15:32 | 43.22245 | 5.82116 | 19028 ft | 411 kts | 43° |
| 2026-05-04 15:33 | 43.26477 | 5.87458 | 19029 ft | 411 kts | 43° |
| 2026-05-04 15:34 | 43.32754 | 5.95409 | 19033 ft | 411 kts | 43° |
| 2026-05-04 15:34 | 43.34853 | 5.98073 | 19029 ft | 411 kts | 43° |
| 2026-05-04 15:34 | 43.39537 | 6.02613 | 19041 ft | 410 kts | 24° |
| 2026-05-04 15:35 | 43.44992 | 6.04609 | 19038 ft | 406 kts | 2° |
| 2026-05-04 15:35 | 43.47810 | 6.04876 | 19044 ft | 406 kts | 2° |
| 2026-05-04 15:35 | 43.50626 | 6.05149 | 19043 ft | 406 kts | 2° |
| 2026-05-04 15:36 | 43.56258 | 6.05724 | 19039 ft | 406 kts | 2° |
| 2026-05-04 15:36 | 43.59083 | 6.06017 | 19041 ft | 406 kts | 2° |
| 2026-05-04 15:36 | 43.61899 | 6.06308 | 19037 ft | 406 kts | 2° |
| 2026-05-04 15:37 | 43.64719 | 6.06595 | 19039 ft | 406 kts | 2° |
| 2026-05-04 15:37 | 43.67542 | 6.06880 | 19038 ft | 406 kts | 2° |
| 2026-05-04 15:37 | 43.70360 | 6.07162 | 19041 ft | 406 kts | 2° |
| 2026-05-04 15:37 | 43.73182 | 6.07447 | 19038 ft | 406 kts | 2° |
| 2026-05-04 15:38 | 43.75995 | 6.07911 | 19041 ft | 408 kts | 10° |
| 2026-05-04 15:38 | 43.78719 | 6.09013 | 19035 ft | 410 kts | 20° |
| 2026-05-04 15:38 | 43.81302 | 6.10683 | 19047 ft | 410 kts | 26° |
| 2026-05-04 15:38 | 43.83862 | 6.12431 | 19044 ft | 410 kts | 25° |
| 2026-05-04 15:39 | 43.86428 | 6.14176 | 19042 ft | 410 kts | 25° |
| 2026-05-04 15:39 | 43.88985 | 6.15913 | 19048 ft | 410 kts | 25° |
| 2026-05-04 15:39 | 43.94118 | 6.19405 | 19046 ft | 410 kts | 25° |
| 2026-05-04 15:40 | 43.96685 | 6.21156 | 19046 ft | 410 kts | 25° |
| 2026-05-04 15:40 | 43.99242 | 6.22904 | 19052 ft | 410 kts | 26° |
| 2026-05-04 15:40 | 44.01805 | 6.24664 | 19049 ft | 410 kts | 25° |
| 2026-05-04 15:40 | 44.04359 | 6.26418 | 19046 ft | 410 kts | 25° |
| 2026-05-04 15:41 | 44.06914 | 6.28169 | 19051 ft | 410 kts | 25° |
| 2026-05-04 15:41 | 44.09470 | 6.29919 | 19048 ft | 410 kts | 25° |
| 2026-05-04 15:41 | 44.12030 | 6.31678 | 19046 ft | 410 kts | 25° |
| 2026-05-04 15:41 | 44.14593 | 6.33443 | 19052 ft | 410 kts | 26° |
| 2026-05-04 15:42 | 44.17149 | 6.35210 | 19048 ft | 410 kts | 25° |
| 2026-05-04 15:42 | 44.19708 | 6.36980 | 19057 ft | 411 kts | 26° |
| 2026-05-04 15:42 | 44.22268 | 6.38747 | 19055 ft | 410 kts | 25° |
| 2026-05-04 15:42 | 44.24825 | 6.40507 | 19054 ft | 410 kts | 25° |
| 2026-05-04 15:43 | 44.27380 | 6.42267 | 19059 ft | 410 kts | 25° |
| 2026-05-04 15:43 | 44.29941 | 6.44035 | 19071 ft | 410 kts | 26° |
| 2026-05-04 15:43 | 44.32498 | 6.45806 | 19066 ft | 410 kts | 26° |
| 2026-05-04 15:43 | 44.35050 | 6.47582 | 19071 ft | 410 kts | 26° |
| 2026-05-04 15:44 | 44.37605 | 6.49363 | 19069 ft | 410 kts | 26° |
| 2026-05-04 15:44 | 44.39337 | 6.50572 | 19081 ft | 411 kts | 26° |
| 2026-05-04 15:44 | 44.42647 | 6.52879 | 19079 ft | 411 kts | 26° |
| 2026-05-04 15:44 | 44.45206 | 6.54661 | 19083 ft | 410 kts | 26° |
| 2026-05-04 15:45 | 44.47766 | 6.56446 | 19088 ft | 410 kts | 26° |
| 2026-05-04 15:45 | 44.49460 | 6.57624 | 19086 ft | 410 kts | 26° |
| 2026-05-04 15:45 | 44.52876 | 6.60006 | 19094 ft | 410 kts | 26° |
| 2026-05-04 15:45 | 44.54598 | 6.61211 | 19095 ft | 410 kts | 26° |
| 2026-05-04 15:46 | 44.57124 | 6.62976 | 19105 ft | 410 kts | 26° |
| 2026-05-04 15:46 | 44.59716 | 6.64786 | 19106 ft | 411 kts | 26° |
| 2026-05-04 15:46 | 44.62275 | 6.66574 | 19099 ft | 411 kts | 26° |
| 2026-05-04 15:46 | 44.64829 | 6.68363 | 19108 ft | 411 kts | 26° |
| 2026-05-04 15:47 | 44.67384 | 6.70161 | 19109 ft | 410 kts | 26° |
| 2026-05-04 15:47 | 44.69944 | 6.71964 | 19109 ft | 410 kts | 26° |
| 2026-05-04 15:47 | 44.72498 | 6.73763 | 19117 ft | 411 kts | 26° |
| 2026-05-04 15:47 | 44.75053 | 6.75558 | 19118 ft | 411 kts | 26° |
| 2026-05-04 15:48 | 44.77648 | 6.77251 | 19117 ft | 410 kts | 19° |
| 2026-05-04 15:48 | 44.80389 | 6.78355 | 19122 ft | 409 kts | 9° |
| 2026-05-04 15:48 | 44.85992 | 6.78648 | 19124 ft | 406 kts | 354° |
| 2026-05-04 15:49 | 44.88846 | 6.78445 | 19127 ft | 406 kts | 354° |
| 2026-05-04 15:49 | 44.91631 | 6.78255 | 19126 ft | 406 kts | 355° |
| 2026-05-04 15:49 | 44.94490 | 6.78072 | 19134 ft | 406 kts | 355° |
| 2026-05-04 15:49 | 44.97311 | 6.77895 | 19135 ft | 406 kts | 355° |
| 2026-05-04 15:50 | 45.00103 | 6.77717 | 19131 ft | 406 kts | 355° |
| 2026-05-04 15:50 | 45.02912 | 6.77534 | 19127 ft | 406 kts | 355° |
| 2026-05-04 15:50 | 45.05789 | 6.77342 | 19127 ft | 407 kts | 355° |
| 2026-05-04 15:50 | 45.08616 | 6.77153 | 19130 ft | 407 kts | 354° |
| 2026-05-04 15:51 | 45.11431 | 6.76966 | 19128 ft | 407 kts | 355° |
| 2026-05-04 15:51 | 45.14271 | 6.76782 | 19122 ft | 407 kts | 355° |
| 2026-05-04 15:51 | 45.17097 | 6.76598 | 19123 ft | 407 kts | 354° |
| 2026-05-04 15:51 | 45.19935 | 6.76411 | 19117 ft | 407 kts | 354° |
| 2026-05-04 15:52 | 45.22765 | 6.76223 | 19114 ft | 408 kts | 354° |
| 2026-05-04 15:52 | 45.25600 | 6.76033 | 19115 ft | 408 kts | 354° |
| 2026-05-04 15:52 | 45.28440 | 6.75841 | 19112 ft | 408 kts | 354° |
| 2026-05-04 15:52 | 45.31266 | 6.75648 | 19112 ft | 408 kts | 354° |
| 2026-05-04 15:53 | 45.34104 | 6.75456 | 19101 ft | 408 kts | 355° |
| 2026-05-04 15:53 | 45.36943 | 6.75266 | 19108 ft | 408 kts | 355° |
| 2026-05-04 15:53 | 45.39777 | 6.75080 | 19104 ft | 407 kts | 355° |
| 2026-05-04 15:53 | 45.42610 | 6.74892 | 19104 ft | 407 kts | 355° |
| 2026-05-04 15:54 | 45.45436 | 6.74702 | 19092 ft | 406 kts | 355° |
| 2026-05-04 15:54 | 45.48271 | 6.74508 | 19095 ft | 407 kts | 355° |
| 2026-05-04 15:54 | 45.51092 | 6.74315 | 19099 ft | 407 kts | 355° |
| 2026-05-04 15:54 | 45.53925 | 6.74123 | 19091 ft | 407 kts | 354° |
| 2026-05-04 15:55 | 45.56754 | 6.73930 | 19094 ft | 407 kts | 355° |
| 2026-05-04 15:55 | 45.59585 | 6.73737 | 19094 ft | 407 kts | 355° |
| 2026-05-04 15:55 | 45.62420 | 6.73543 | 19092 ft | 407 kts | 355° |
| 2026-05-04 15:55 | 45.65243 | 6.73349 | 19081 ft | 407 kts | 355° |
| 2026-05-04 15:56 | 45.68095 | 6.73152 | 19493 ft | 411 kts | 355° |
| 2026-05-04 15:56 | 45.70960 | 6.72956 | 20043 ft | 413 kts | 355° |
| 2026-05-04 15:56 | 45.73839 | 6.72758 | 20672 ft | 416 kts | 355° |
| 2026-05-04 15:56 | 45.76748 | 6.72556 | 21251 ft | 420 kts | 355° |
| 2026-05-04 15:57 | 45.79686 | 6.72701 | 21824 ft | 426 kts | 5° |
| 2026-05-04 15:57 | 45.82600 | 6.73567 | 22393 ft | 430 kts | 16° |
| 2026-05-04 15:57 | 45.85398 | 6.75129 | 22953 ft | 434 kts | 24° |
| 2026-05-04 15:57 | 45.88153 | 6.76944 | 23491 ft | 437 kts | 24° |
| 2026-05-04 15:58 | 45.90935 | 6.78770 | 23958 ft | 441 kts | 24° |
| 2026-05-04 15:58 | 45.93727 | 6.80595 | 24431 ft | 443 kts | 24° |
| 2026-05-04 15:58 | 45.96544 | 6.82433 | 24885 ft | 443 kts | 24° |
| 2026-05-04 15:58 | 45.99264 | 6.84209 | 25323 ft | 414 kts | 24° |
| 2026-05-04 15:59 | 46.01782 | 6.85856 | 25762 ft | 383 kts | 24° |
| 2026-05-04 15:59 | 46.04116 | 6.87386 | 26221 ft | 352 kts | 24° |
| 2026-05-04 15:59 | 46.06247 | 6.88785 | 26676 ft | 322 kts | 24° |
| 2026-05-04 15:59 | 46.08247 | 6.90096 | 27159 ft | 312 kts | 24° |
| 2026-05-04 16:00 | 46.10224 | 6.91395 | 27648 ft | 313 kts | 24° |
| 2026-05-04 16:00 | 46.12210 | 6.92702 | 28152 ft | 314 kts | 24° |
| 2026-05-04 16:00 | 46.14196 | 6.94012 | 28660 ft | 316 kts | 24° |
| 2026-05-04 16:00 | 46.16198 | 6.95334 | 29187 ft | 315 kts | 24° |
| 2026-05-04 16:01 | 46.18189 | 6.96648 | 29700 ft | 313 kts | 24° |
| 2026-05-04 16:01 | 46.19991 | 6.97841 | 30167 ft | 313 kts | 24° |
| 2026-05-04 16:01 | 46.21971 | 6.99151 | 30532 ft | 314 kts | 24° |
| 2026-05-04 16:01 | 46.23965 | 7.00469 | 30827 ft | 316 kts | 24° |
| 2026-05-04 16:02 | 46.25970 | 7.01794 | 31165 ft | 318 kts | 24° |
| 2026-05-04 16:02 | 46.27986 | 7.03128 | 31485 ft | 320 kts | 23° |
| 2026-05-04 16:02 | 46.32060 | 7.05836 | 32136 ft | 324 kts | 23° |
| 2026-05-04 16:03 | 46.34149 | 7.07225 | 32433 ft | 326 kts | 24° |
| 2026-05-04 16:03 | 46.36220 | 7.08600 | 32691 ft | 329 kts | 22° |
| 2026-05-04 16:03 | 46.38335 | 7.09993 | 32634 ft | 344 kts | 22° |
| 2026-05-04 16:03 | 46.40536 | 7.11410 | 32511 ft | 345 kts | 22° |
| 2026-05-04 16:04 | 46.42690 | 7.12856 | 32863 ft | 347 kts | 24° |
| 2026-05-04 16:04 | 46.47146 | 7.15895 | 32987 ft | 358 kts | 23° |
| 2026-05-04 16:04 | 46.49376 | 7.17402 | 33204 ft | 353 kts | 23° |
| 2026-05-04 16:05 | 46.51613 | 7.18905 | 33351 ft | 356 kts | 22° |
| 2026-05-04 16:05 | 46.53865 | 7.20409 | 33377 ft | 354 kts | 22° |
| 2026-05-04 16:05 | 46.58366 | 7.23390 | 33637 ft | 357 kts | 22° |
| 2026-05-04 16:06 | 46.60634 | 7.24903 | 33736 ft | 358 kts | 23° |
| 2026-05-04 16:06 | 46.66668 | 7.29012 | 34363 ft | 361 kts | 22° |
| 2026-05-04 16:07 | 46.69708 | 7.31002 | 34795 ft | 360 kts | 22° |
| 2026-05-04 16:07 | 46.76609 | 7.35743 | 35427 ft | 370 kts | 22° |
| 2026-05-04 16:08 | 46.78943 | 7.37334 | 35402 ft | 369 kts | 22° |
| 2026-05-04 16:08 | 46.85009 | 7.43479 | 36047 ft | 379 kts | 52° |
| 2026-05-04 16:09 | 46.85028 | 7.43512 | 36048 ft | 379 kts | 52° |